Wednesday, August 20, 2014, 4:27 PM EDT

KRDG, Reading Regional Airport

Location: Reading, PA, United States Lat: 40.367
Local Time: 4:27 PM EDT (20:27 GMT) Lon: -75.967
Time Zone: US/Eastern Elev: 344 ft

Show me the last for .
Show Decoded

2014-08-20 15:54 METAR KRDG 201954Z 20008KT 10SM BKN045 OVC050 28/18 A2996 =
2014-08-20 14:54 METAR KRDG 201854Z 18004KT 10SM BKN044 BKN055 29/17 A2995 RMK AO2 SLP144
                 T02940172 =
2014-08-20 13:54 METAR KRDG 201754Z 20011KT 10SM CLR 29/17 A2995 RMK AO2 SLP145 T02940172 10294
                 20222 58015 =
2014-08-20 12:54 METAR KRDG 201654Z 20007KT 10SM CLR 28/17 A2998 RMK AO2 SLP153 T02830167 =
2014-08-20 11:54 METAR KRDG 201554Z 20011KT 10SM SCT041 SCT060 28/17 A2999 RMK AO2 SLP158
                 T02780172 =
2014-08-20 10:54 METAR KRDG 201454Z 18007KT 10SM SCT036 BKN050 27/16 A3000 RMK AO2 SLP161
                 T02670161 53009 =
2014-08-20 09:54 METAR KRDG 201354Z AUTO 18004KT 10SM BKN036 OVC050 25/17 A2999 RMK AO2 SLP158
                 T02500172 =
2014-08-20 08:54 METAR KRDG 201254Z AUTO VRB03KT 10SM SCT035 23/18 A2998 RMK AO2 SLP154 T02330183
                 =
2014-08-20 07:54 METAR KRDG 201154Z AUTO 00000KT 10SM CLR 22/18 A2997 RMK AO2 SLP151 T02220183
                 10222 20194 51014 =
2014-08-20 06:54 METAR KRDG 201054Z AUTO 00000KT 10SM BKN060 21/17 A2996 RMK AO2 SLP148 T02060172
                 =
2014-08-20 05:54 METAR KRDG 200954Z AUTO 00000KT 10SM OVC048 21/18 A2994 RMK AO2 SLP142 T02060178
                 =
2014-08-20 04:54 METAR KRDG 200854Z AUTO 00000KT 10SM FEW047 21/17 A2993 =
2014-08-20 03:54 METAR KRDG 200754Z AUTO 15003KT 10SM FEW055 21/17 A2993 RMK AO2 SLP136 T02110167
                 =
2014-08-20 02:54 METAR KRDG 200654Z AUTO 00000KT 10SM FEW055 22/17 A2993 RMK AO2 SLP139 T02170167
                 =
2014-08-20 01:54 METAR KRDG 200554Z AUTO 00000KT 10SM FEW055 22/16 A2993 RMK AO2 SLP137 T02170161
                 10267 20217 50007 =
2014-08-20 00:54 METAR KRDG 200454Z AUTO 19003KT 10SM FEW070 OVC085 23/17 A2993 RMK AO2 SLP137
                 T02330167 402940161 =
2014-08-19 23:54 METAR KRDG 200354Z AUTO 16006KT 10SM SCT060 OVC080 24/18 A2992 =
2014-08-19 22:54 METAR KRDG 200254Z AUTO 00000KT 10SM OVC065 24/18 A2991 RMK AO2 SLP129 T02440183
                 53013 =
2014-08-19 21:54 METAR KRDG 200154Z AUTO 00000KT 10SM FEW070 OVC095 24/18 A2989 RMK AO2 SLP122
                 T02440178 =
2014-08-19 20:54 METAR KRDG 200054Z AUTO 00000KT 10SM BKN090 OVC110 25/18 A2988 RMK AO2 SLP121
                 T02500183 =
2014-08-19 19:54 METAR KRDG 192354Z AUTO 00000KT 10SM BKN110 27/17 A2987 RMK AO2 SLP116 T02670172
                 10294 20261 53003 =
2014-08-19 18:54 METAR KRDG 192254Z AUTO 00000KT 10SM FEW055 SCT110 28/16 A2986 =
2014-08-19 17:54 METAR KRDG 192154Z AUTO 00000KT 10SM BKN050 28/15 A2986 RMK AO2 SLP115 T02830150
                 =
2014-08-19 16:54 METAR KRDG 192054Z AUTO 00000KT 10SM BKN049 28/16 A2986 =

Support USWX by starting your Amazon purchase here.